Time;durP1;ratioP1;P1;durP2;ratioP2;P2;SDS_P1;SDS_P2;PMS_P1;PMS_P2;Temp;Humidity;BMP_temperature;BMP_pressure;BME280_temperature;BME280_humidity;BME280_pressure;Samples;Min_cycle;Max_cycle;Signal;HPM_P1;HPM_P2
2023/03/10 00:01:23;;;;;;;4.03;1.00;;;11.10;62.40;;;;;;4965741;28;20303;-61
2023/03/10 00:03:49;;;;;;;2.80;1.02;;;11.10;62.60;;;;;;4971588;28;20383;-61
2023/03/10 00:06:18;;;;;;;4.47;0.80;;;11.10;62.70;;;;;;4970764;28;20238;-61
2023/03/10 00:08:44;;;;;;;2.30;0.80;;;11.10;62.80;;;;;;4967732;28;20073;-62
2023/03/10 00:11:10;;;;;;;1.20;0.70;;;11.10;62.90;;;;;;4963443;28;20035;-59
2023/03/10 00:13:35;;;;;;;3.97;0.85;;;11.10;63.10;;;;;;4966681;28;20046;-60
2023/03/10 00:16:01;;;;;;;1.67;0.63;;;11.10;63.30;;;;;;4970341;28;20038;-61
2023/03/10 00:18:27;;;;;;;3.72;0.80;;;11.10;63.40;;;;;;4967598;28;20126;-63
2023/03/10 00:20:53;;;;;;;3.25;0.70;;;11.10;63.50;;;;;;4967029;28;20125;-60
2023/03/10 00:23:20;;;;;;;3.20;0.63;;;11.10;63.60;;;;;;4956879;28;20037;-61
2023/03/10 00:25:59;;;;;;;2.72;0.88;;;11.00;63.60;;;;;;4969350;28;20085;-61
2023/03/10 00:28:26;;;;;;;2.15;0.82;;;11.00;63.70;;;;;;4971035;28;20519;-61
2023/03/10 00:31:04;;;;;;;3.42;0.90;;;11.00;63.60;;;;;;4971683;28;20453;-62
2023/03/10 00:33:32;;;;;;;1.13;0.60;;;10.90;63.70;;;;;;4975181;28;20042;-61
2023/03/10 00:36:04;;;;;;;2.13;0.80;;;10.90;63.60;;;;;;4974072;28;20059;-61
2023/03/10 00:38:30;;;;;;;1.15;0.50;;;10.90;63.60;;;;;;4970628;28;20047;-61
2023/03/10 00:41:04;;;;;;;2.25;1.13;;;10.80;63.60;;;;;;4965960;28;20039;-62
2023/03/10 00:43:30;;;;;;;1.70;0.70;;;10.80;63.70;;;;;;4968034;28;20094;-60
2023/03/10 00:45:56;;;;;;;2.33;0.90;;;10.80;63.70;;;;;;4965830;28;20046;-59
2023/03/10 00:48:22;;;;;;;2.15;0.82;;;10.70;63.70;;;;;;4971311;28;20058;-60
2023/03/10 00:50:48;;;;;;;3.10;1.00;;;10.70;63.80;;;;;;4966624;28;20047;-60
2023/03/10 00:53:14;;;;;;;2.47;0.80;;;10.60;63.80;;;;;;4969540;28;20179;-60
2023/03/10 00:55:40;;;;;;;3.03;0.70;;;10.50;63.80;;;;;;4971941;28;20034;-59
2023/03/10 00:58:06;;;;;;;1.98;1.10;;;10.50;64.00;;;;;;4974915;28;20031;-59
2023/03/10 01:00:32;;;;;;;1.50;0.90;;;10.40;64.80;;;;;;4974323;28;20058;-60
2023/03/10 01:02:58;;;;;;;2.38;0.80;;;10.40;64.10;;;;;;4973570;28;20105;-60
2023/03/10 01:05:24;;;;;;;2.90;1.05;;;10.40;64.10;;;;;;4975513;28;20039;-59
2023/03/10 01:07:49;;;;;;;2.67;0.90;;;10.40;64.30;;;;;;4974790;28;20038;-60
2023/03/10 01:10:15;;;;;;;2.85;0.90;;;10.30;65.20;;;;;;4967121;28;20046;-59
2023/03/10 01:12:41;;;;;;;3.03;1.08;;;10.30;64.50;;;;;;4961575;28;20470;-59
2023/03/10 01:15:07;;;;;;;2.17;0.95;;;10.30;64.50;;;;;;4967084;28;20062;-61
2023/03/10 01:17:33;;;;;;;2.22;0.88;;;10.30;64.50;;;;;;4972199;28;20042;-61
2023/03/10 01:19:58;;;;;;;2.50;0.98;;;10.30;64.50;;;;;;4967955;28;20046;-62
2023/03/10 01:22:24;;;;;;;1.88;0.95;;;10.30;65.30;;;;;;4968343;28;20040;-60
2023/03/10 01:24:50;;;;;;;1.63;0.98;;;10.30;64.30;;;;;;4962152;28;20042;-60
2023/03/10 01:27:15;;;;;;;3.28;0.90;;;10.30;64.30;;;;;;4965640;28;20043;-60
2023/03/10 01:29:41;;;;;;;2.90;1.20;;;10.40;64.30;;;;;;4972070;28;20043;-61
2023/03/10 01:32:06;;;;;;;3.65;1.20;;;10.40;64.50;;;;;;4974564;28;20109;-60
2023/03/10 01:34:32;;;;;;;3.22;1.10;;;10.40;64.30;;;;;;4972948;28;20042;-58
2023/03/10 01:36:58;;;;;;;1.92;1.00;;;10.40;64.30;;;;;;4973575;28;20066;-59
2023/03/10 01:39:24;;;;;;;2.72;1.10;;;10.40;64.10;;;;;;4971950;28;20122;-61
2023/03/10 01:41:49;;;;;;;2.38;1.10;;;10.40;64.10;;;;;;4966416;28;20377;-61
2023/03/10 01:44:18;;;;;;;3.63;1.17;;;10.40;64.00;;;;;;4964227;28;20125;-60
2023/03/10 01:46:54;;;;;;;1.65;0.90;;;10.50;63.90;;;;;;4965373;28;20053;-61
2023/03/10 01:49:38;;;;;;;2.83;1.10;;;10.50;63.60;;;;;;4964505;28;20688;-62
2023/03/10 01:52:13;;;;;;;1.77;0.90;;;10.50;63.50;;;;;;4962956;28;20418;-62
2023/03/10 01:55:08;;;;;;;3.35;0.95;;;10.50;63.50;;;;;;4962861;28;20141;-62
2023/03/10 01:57:38;;;;;;;2.35;1.10;;;10.50;63.40;;;;;;4964476;28;20031;-61
2023/03/10 02:00:11;;;;;;;2.97;0.80;;;10.60;63.60;;;;;;4964140;28;20042;-61
2023/03/10 02:02:41;;;;;;;3.42;1.10;;;10.50;63.60;;;;;;4966784;28;20582;-58
2023/03/10 02:05:07;;;;;;;2.97;1.10;;;10.50;63.50;;;;;;4967684;28;20307;-61
2023/03/10 02:07:34;;;;;;;3.30;1.10;;;10.60;63.60;;;;;;4969114;28;20033;-59
2023/03/10 02:10:01;;;;;;;2.80;1.08;;;10.60;63.60;;;;;;4968053;28;20073;-59
2023/03/10 02:12:27;;;;;;;5.38;1.17;;;10.50;63.60;;;;;;4962860;28;20486;-60
2023/03/10 02:14:53;;;;;;;2.20;1.13;;;10.60;63.60;;;;;;4966666;28;20391;-61
2023/03/10 02:17:21;;;;;;;2.90;1.15;;;10.60;63.60;;;;;;4966342;28;20133;-59
2023/03/10 02:20:05;;;;;;;3.03;1.10;;;10.60;63.80;;;;;;4970377;28;20101;-60
2023/03/10 02:22:32;;;;;;;4.27;1.10;;;10.70;63.90;;;;;;4966806;28;20050;-60
2023/03/10 02:25:09;;;;;;;1.70;0.93;;;10.70;63.80;;;;;;4965920;28;20799;-60
2023/03/10 02:27:37;;;;;;;4.80;1.10;;;10.70;63.70;;;;;;4967806;28;20026;-58
2023/03/10 02:30:19;;;;;;;2.25;0.85;;;10.70;64.00;;;;;;4969109;28;20662;-61
2023/03/10 02:32:49;;;;;;;2.92;1.08;;;10.70;64.50;;;;;;4967744;28;20031;-60
2023/03/10 02:35:15;;;;;;;3.20;1.15;;;10.70;64.60;;;;;;4968070;28;20039;-61
2023/03/10 02:37:40;;;;;;;1.95;0.85;;;10.70;64.80;;;;;;4968263;28;20153;-59
2023/03/10 02:40:39;;;;;;;3.65;1.05;;;10.60;65.00;;;;;;4967910;28;20051;-61
2023/03/10 02:43:21;;;;;;;2.25;0.85;;;10.60;65.70;;;;;;4960914;28;20046;-61
2023/03/10 02:45:49;;;;;;;4.28;0.90;;;10.60;66.20;;;;;;4963851;28;20513;-57
2023/03/10 02:48:21;;;;;;;3.15;1.02;;;10.60;66.20;;;;;;4975605;28;20039;-60
2023/03/10 02:50:47;;;;;;;3.70;1.00;;;10.60;67.00;;;;;;4968269;28;20042;-58
2023/03/10 02:53:17;;;;;;;3.83;1.00;;;10.60;67.20;;;;;;4969897;28;20038;-60
2023/03/10 02:55:43;;;;;;;2.30;0.88;;;10.60;67.40;;;;;;4970098;28;20045;-59
2023/03/10 02:58:08;;;;;;;2.85;0.90;;;10.60;67.70;;;;;;4968569;28;20418;-60
2023/03/10 03:00:39;;;;;;;3.17;1.23;;;10.60;68.50;;;;;;4968284;28;20038;-61
2023/03/10 03:03:05;;;;;;;3.53;0.95;;;10.70;69.30;;;;;;4974284;28;20517;-61
2023/03/10 03:05:31;;;;;;;2.47;0.90;;;10.60;70.40;;;;;;4975612;28;20030;-62
2023/03/10 03:07:57;;;;;;;2.40;0.70;;;10.60;71.70;;;;;;4972669;28;20066;-60
2023/03/10 03:10:22;;;;;;;1.45;0.88;;;10.60;72.10;;;;;;4968151;28;20043;-62
2023/03/10 03:12:50;;;;;;;2.10;0.75;;;10.60;72.10;;;;;;4967365;28;20042;-61
2023/03/10 03:15:16;;;;;;;4.47;0.70;;;10.50;72.10;;;;;;4975151;28;20053;-62
2023/03/10 03:17:42;;;;;;;1.08;0.50;;;10.60;72.50;;;;;;4969429;28;20041;-62
2023/03/10 03:20:13;;;;;;;1.90;0.47;;;10.50;73.70;;;;;;4969913;28;20411;-62
2023/03/10 03:22:40;;;;;;;0.90;0.50;;;10.50;73.80;;;;;;4967752;28;20031;-61
2023/03/10 03:25:05;;;;;;;0.70;0.20;;;10.50;73.70;;;;;;4975497;28;20041;-62
2023/03/10 03:27:31;;;;;;;1.52;0.38;;;10.50;74.10;;;;;;4973481;28;20042;-61
2023/03/10 03:29:58;;;;;;;0.20;0.20;;;10.50;73.90;;;;;;4963144;28;21004;-62
2023/03/10 03:32:23;;;;;;;0.52;0.30;;;10.50;74.70;;;;;;4968300;28;20026;-61
2023/03/10 03:34:49;;;;;;;1.00;0.32;;;10.50;75.10;;;;;;4974485;28;20093;-59
2023/03/10 03:37:14;;;;;;;0.93;0.28;;;10.50;75.10;;;;;;4968470;28;20038;-62
2023/03/10 03:39:40;;;;;;;0.45;0.20;;;10.40;76.20;;;;;;4967561;28;20524;-61
2023/03/10 03:42:06;;;;;;;0.65;0.30;;;10.50;76.60;;;;;;4965686;28;20499;-61
2023/03/10 03:44:31;;;;;;;0.93;0.30;;;10.40;75.70;;;;;;4965998;28;20089;-59
2023/03/10 03:46:57;;;;;;;0.47;0.30;;;10.40;75.60;;;;;;4966490;28;20499;-62
2023/03/10 03:49:22;;;;;;;1.83;0.30;;;10.40;76.10;;;;;;4969636;28;20038;-61
2023/03/10 03:51:48;;;;;;;1.05;0.17;;;10.40;76.00;;;;;;4966624;28;20027;-60
2023/03/10 03:54:13;;;;;;;0.50;0.20;;;10.40;76.10;;;;;;4966886;28;20043;-61
2023/03/10 03:56:39;;;;;;;1.05;0.28;;;10.40;76.40;;;;;;4966439;28;20509;-59
2023/03/10 03:59:05;;;;;;;0.32;0.22;;;10.40;76.20;;;;;;4967331;28;20037;-62
2023/03/10 04:01:30;;;;;;;0.73;0.10;;;10.30;76.20;;;;;;4965819;28;20126;-59
2023/03/10 04:03:56;;;;;;;0.65;0.20;;;10.30;76.50;;;;;;4964814;28;20038;-61
2023/03/10 04:06:22;;;;;;;0.17;0.10;;;10.30;76.70;;;;;;4974708;28;20084;-61
2023/03/10 04:08:50;;;;;;;1.52;0.10;;;10.30;76.60;;;;;;4970404;28;20042;-61
2023/03/10 04:11:16;;;;;;;0.20;0.10;;;10.30;76.80;;;;;;4963301;28;20042;-61
2023/03/10 04:13:45;;;;;;;0.20;0.20;;;10.20;76.60;;;;;;4972768;28;20463;-62
2023/03/10 04:16:11;;;;;;;0.82;0.22;;;10.20;77.00;;;;;;4969021;28;20153;-60
2023/03/10 04:18:37;;;;;;;1.48;0.20;;;10.20;77.10;;;;;;4970965;28;20113;-60
2023/03/10 04:21:02;;;;;;;0.25;0.10;;;10.20;77.20;;;;;;4966507;28;20494;-62
2023/03/10 04:23:28;;;;;;;1.17;0.20;;;10.10;77.30;;;;;;4967495;28;20741;-60
2023/03/10 04:25:54;;;;;;;1.10;0.10;;;10.10;77.30;;;;;;4958452;28;20482;-61
2023/03/10 04:28:19;;;;;;;0.50;0.10;;;10.10;77.70;;;;;;4974588;28;20434;-61
2023/03/10 04:30:46;;;;;;;0.10;0.08;;;10.10;77.70;;;;;;4959270;28;20760;-60
2023/03/10 04:33:12;;;;;;;0.10;0.08;;;10.10;77.80;;;;;;4964784;28;20043;-62
2023/03/10 04:35:42;;;;;;;0.13;0.10;;;10.10;77.50;;;;;;4974057;28;20132;-62
2023/03/10 04:38:08;;;;;;;0.30;0.10;;;10.10;77.70;;;;;;4967832;28;20039;-60
2023/03/10 04:40:34;;;;;;;0.30;0.20;;;10.10;77.70;;;;;;4961312;28;20042;-59
2023/03/10 04:43:00;;;;;;;1.08;0.25;;;10.00;77.90;;;;;;4965806;28;20118;-61
2023/03/10 04:45:26;;;;;;;0.00;0.00;;;10.10;78.30;;;;;;4972942;28;20038;-61
2023/03/10 04:47:51;;;;;;;0.17;0.08;;;10.10;78.30;;;;;;4968035;28;20038;-61
2023/03/10 04:50:17;;;;;;;0.43;0.10;;;10.00;78.50;;;;;;4967043;28;20494;-62
2023/03/10 04:52:45;;;;;;;0.63;0.10;;;10.00;78.20;;;;;;4962465;28;20482;-61
2023/03/10 04:55:11;;;;;;;0.40;0.08;;;10.10;78.20;;;;;;4962976;28;20056;-60
2023/03/10 04:57:37;;;;;;;0.30;0.30;;;10.10;78.10;;;;;;4970907;28;20046;-62
2023/03/10 05:00:06;;;;;;;0.22;0.17;;;10.10;78.40;;;;;;4968096;28;20399;-60
2023/03/10 05:02:35;;;;;;;0.30;0.10;;;10.10;78.60;;;;;;4964917;28;20631;-61
2023/03/10 05:05:01;;;;;;;1.13;0.10;;;10.10;78.50;;;;;;4969300;28;20065;-61
2023/03/10 05:07:27;;;;;;;0.55;0.20;;;10.10;78.60;;;;;;4967120;28;20034;-61
2023/03/10 05:09:53;;;;;;;0.20;0.20;;;10.10;78.60;;;;;;4959974;28;20031;-60
2023/03/10 05:12:19;;;;;;;0.15;0.10;;;10.10;78.70;;;;;;4956836;28;20039;-60
2023/03/10 05:14:44;;;;;;;1.55;0.20;;;10.10;78.80;;;;;;4968432;28;20034;-62
2023/03/10 05:17:10;;;;;;;3.55;1.48;;;10.10;78.80;;;;;;4964674;28;20074;-59
2023/03/10 05:19:36;;;;;;;0.70;0.70;;;10.10;78.40;;;;;;4964360;28;20141;-60
2023/03/10 05:22:03;;;;;;;1.50;1.40;;;10.10;78.60;;;;;;4963339;28;20441;-61
2023/03/10 05:24:29;;;;;;;9.35;6.80;;;10.10;78.60;;;;;;4962814;28;20488;-62
2023/03/10 05:26:55;;;;;;;3.63;3.28;;;10.20;78.70;;;;;;4957358;28;20046;-62
2023/03/10 05:29:20;;;;;;;1.15;1.00;;;10.20;78.80;;;;;;4959715;28;20121;-61
2023/03/10 05:31:46;;;;;;;2.20;2.00;;;10.10;78.80;;;;;;4968747;28;20030;-59
2023/03/10 05:34:13;;;;;;;0.75;0.60;;;10.10;78.60;;;;;;4975286;28;20027;-61
2023/03/10 05:36:39;;;;;;;0.50;0.50;;;10.20;78.70;;;;;;4974547;28;20691;-60
2023/03/10 05:39:05;;;;;;;3.17;2.83;;;10.20;78.70;;;;;;4972574;28;20058;-60
2023/03/10 05:41:31;;;;;;;1.50;1.13;;;10.20;78.70;;;;;;4972509;28;20039;-60
2023/03/10 05:43:57;;;;;;;0.77;0.60;;;10.20;78.70;;;;;;4972375;28;20506;-59
2023/03/10 05:46:24;;;;;;;0.60;0.60;;;10.20;78.60;;;;;;4974593;28;20354;-59
2023/03/10 05:48:49;;;;;;;0.30;0.30;;;10.20;78.60;;;;;;4972448;28;20088;-60
2023/03/10 05:51:15;;;;;;;0.68;0.30;;;10.20;78.40;;;;;;4974774;28;20287;-60
2023/03/10 05:53:41;;;;;;;0.30;0.25;;;10.10;78.40;;;;;;4974406;28;20035;-59
2023/03/10 05:56:13;;;;;;;0.98;0.20;;;10.20;78.40;;;;;;4973143;28;20121;-60
2023/03/10 05:58:39;;;;;;;0.88;0.30;;;10.20;78.60;;;;;;4971856;28;20445;-60
2023/03/10 06:01:05;;;;;;;0.43;0.40;;;10.20;78.40;;;;;;4973220;28;20424;-59
2023/03/10 06:03:31;;;;;;;1.13;0.40;;;10.20;78.40;;;;;;4974204;28;20035;-61
2023/03/10 06:05:57;;;;;;;0.57;0.50;;;10.20;78.40;;;;;;4974075;28;20510;-59
2023/03/10 06:08:23;;;;;;;0.60;0.40;;;10.20;78.30;;;;;;4970744;28;20451;-61
2023/03/10 06:10:50;;;;;;;0.20;0.20;;;10.20;78.20;;;;;;4969056;28;20089;-61
2023/03/10 06:13:18;;;;;;;0.90;0.60;;;10.20;78.00;;;;;;4974207;28;20076;-61
2023/03/10 06:15:50;;;;;;;0.52;0.50;;;10.20;78.10;;;;;;4974424;28;20037;-62
2023/03/10 06:18:17;;;;;;;1.40;0.60;;;10.30;77.90;;;;;;4971458;28;20383;-60
2023/03/10 06:20:43;;;;;;;1.88;0.70;;;10.30;77.90;;;;;;4973005;28;20030;-58
2023/03/10 06:23:08;;;;;;;0.80;0.50;;;10.30;77.70;;;;;;4973243;28;20387;-61
2023/03/10 06:25:34;;;;;;;0.75;0.30;;;10.30;77.70;;;;;;4973550;28;20035;-60
2023/03/10 06:27:59;;;;;;;0.40;0.30;;;10.30;77.60;;;;;;4956452;28;20042;-61
2023/03/10 06:30:25;;;;;;;0.65;0.30;;;10.20;77.50;;;;;;4974033;28;20489;-60
2023/03/10 06:32:51;;;;;;;0.50;0.30;;;10.30;77.50;;;;;;4973823;28;20453;-59
2023/03/10 06:35:16;;;;;;;0.50;0.40;;;10.30;77.50;;;;;;4977669;28;20448;-62
2023/03/10 06:37:42;;;;;;;1.55;0.80;;;10.20;77.40;;;;;;4978589;28;20165;-61
2023/03/10 06:40:11;;;;;;;0.60;0.40;;;10.30;77.30;;;;;;4975127;28;20101;-62
2023/03/10 06:42:40;;;;;;;1.33;0.40;;;10.20;77.20;;;;;;4975624;28;20165;-60
2023/03/10 06:45:07;;;;;;;0.82;0.17;;;10.30;77.30;;;;;;4978391;28;20042;-60
2023/03/10 06:47:33;;;;;;;1.00;0.30;;;10.20;77.30;;;;;;4979267;28;20498;-60
2023/03/10 06:49:59;;;;;;;2.35;0.75;;;10.20;77.20;;;;;;4979996;28;20046;-59
2023/03/10 06:52:25;;;;;;;1.00;0.40;;;10.20;77.10;;;;;;4976533;28;20038;-61
2023/03/10 06:54:51;;;;;;;1.85;0.40;;;10.20;77.10;;;;;;4974659;28;20073;-60
2023/03/10 06:57:16;;;;;;;0.40;0.30;;;10.20;77.00;;;;;;4979092;28;20058;-62
2023/03/10 06:59:42;;;;;;;0.73;0.30;;;10.20;76.80;;;;;;4977563;28;20114;-61
2023/03/10 07:02:11;;;;;;;0.50;0.20;;;10.20;76.70;;;;;;4975274;28;20050;-62
2023/03/10 07:04:36;;;;;;;0.90;0.30;;;10.20;76.80;;;;;;4975689;28;20880;-59
2023/03/10 07:07:02;;;;;;;0.70;0.20;;;10.20;76.60;;;;;;4976662;28;20482;-61
2023/03/10 07:09:28;;;;;;;0.30;0.20;;;10.20;76.70;;;;;;4976986;28;20041;-60
2023/03/10 07:11:53;;;;;;;0.30;0.25;;;10.30;76.80;;;;;;4978595;28;20555;-61
2023/03/10 07:14:19;;;;;;;0.60;0.40;;;10.30;76.90;;;;;;4979255;28;20414;-61
2023/03/10 07:16:45;;;;;;;1.98;0.50;;;10.30;77.00;;;;;;4979310;28;20033;-62
2023/03/10 07:19:11;;;;;;;0.73;0.40;;;10.30;77.20;;;;;;4979096;28;20283;-61
2023/03/10 07:21:37;;;;;;;0.90;0.57;;;10.40;77.40;;;;;;4980196;28;20042;-61
2023/03/10 07:24:02;;;;;;;1.58;0.52;;;10.40;77.70;;;;;;4976429;28;20708;-60
2023/03/10 07:26:28;;;;;;;1.10;0.38;;;10.40;77.90;;;;;;4976216;28;20048;-61
2023/03/10 07:28:54;;;;;;;1.75;0.60;;;10.50;78.00;;;;;;4976187;28;20113;-61
2023/03/10 07:31:19;;;;;;;2.53;0.80;;;10.60;78.20;;;;;;4977073;28;20498;-59
2023/03/10 07:33:45;;;;;;;1.65;0.65;;;10.70;78.40;;;;;;4974503;28;20038;-61
2023/03/10 07:36:13;;;;;;;0.60;0.40;;;10.80;78.60;;;;;;4975463;28;20235;-62
2023/03/10 07:38:39;;;;;;;1.60;0.68;;;10.80;78.50;;;;;;4974202;28;20362;-61
2023/03/10 07:41:07;;;;;;;0.75;0.55;;;10.90;78.40;;;;;;4975863;28;20034;-62
2023/03/10 07:43:32;;;;;;;0.45;0.40;;;11.00;78.10;;;;;;4975973;28;20062;-62
2023/03/10 07:45:58;;;;;;;2.78;0.50;;;11.10;77.80;;;;;;4974739;28;20514;-61
2023/03/10 07:48:23;;;;;;;0.93;0.20;;;11.10;77.40;;;;;;4976268;28;20037;-60
2023/03/10 07:50:56;;;;;;;0.80;0.60;;;11.20;76.50;;;;;;4976471;28;20034;-61
2023/03/10 07:53:22;;;;;;;0.70;0.70;;;11.30;75.70;;;;;;4973927;28;20035;-62
2023/03/10 07:55:47;;;;;;;1.92;1.73;;;11.30;75.40;;;;;;4974831;28;20043;-60
2023/03/10 07:58:13;;;;;;;1.10;1.00;;;11.40;76.00;;;;;;4975815;28;20037;-59
2023/03/10 08:00:38;;;;;;;0.30;0.30;;;11.50;74.20;;;;;;4973466;28;20089;-59
2023/03/10 08:03:04;;;;;;;0.20;0.20;;;11.50;73.60;;;;;;4976590;28;20061;-61
2023/03/10 08:05:31;;;;;;;0.50;0.40;;;11.50;73.20;;;;;;4974795;28;20561;-60
2023/03/10 08:07:57;;;;;;;0.35;0.30;;;11.50;73.00;;;;;;4972942;28;20073;-59
2023/03/10 08:10:23;;;;;;;0.32;0.30;;;11.50;72.60;;;;;;4971625;28;20456;-58
2023/03/10 08:12:48;;;;;;;0.43;0.20;;;11.50;72.50;;;;;;4976822;28;20117;-61
2023/03/10 08:15:14;;;;;;;0.32;0.20;;;11.50;72.30;;;;;;4973886;28;20514;-60
2023/03/10 08:17:39;;;;;;;0.65;0.20;;;11.50;72.40;;;;;;4973043;28;20051;-61
2023/03/10 08:20:06;;;;;;;1.10;0.20;;;11.40;72.60;;;;;;4972723;28;20122;-61
2023/03/10 08:22:32;;;;;;;0.52;0.10;;;11.40;72.80;;;;;;4974649;28;20112;-61
2023/03/10 08:24:58;;;;;;;0.30;0.20;;;11.30;72.90;;;;;;4975118;28;20038;-61
2023/03/10 08:27:25;;;;;;;0.20;0.20;;;11.20;72.80;;;;;;4973436;28;20034;-60
2023/03/10 08:29:51;;;;;;;0.20;0.08;;;11.10;72.60;;;;;;4976331;28;20435;-61
2023/03/10 08:32:17;;;;;;;0.30;0.30;;;11.00;72.80;;;;;;4975354;28;20604;-59
2023/03/10 08:34:43;;;;;;;4.72;2.75;;;11.00;72.90;;;;;;4975039;28;20085;-61
2023/03/10 08:37:09;;;;;;;5.45;3.53;;;10.90;73.20;;;;;;4975199;28;20043;-59
2023/03/10 08:39:34;;;;;;;1.55;1.00;;;10.80;73.20;;;;;;4973140;28;20510;-61
2023/03/10 08:42:00;;;;;;;4.75;2.80;;;10.80;73.30;;;;;;4976590;28;20050;-62
2023/03/10 08:44:25;;;;;;;0.60;0.50;;;10.70;73.50;;;;;;4975087;28;20046;-61
2023/03/10 08:46:51;;;;;;;1.25;0.40;;;10.70;73.80;;;;;;4973988;28;20208;-62
2023/03/10 08:49:20;;;;;;;0.68;0.68;;;10.60;73.90;;;;;;4974543;28;20046;-62
2023/03/10 08:51:45;;;;;;;0.40;0.38;;;10.60;73.90;;;;;;4975966;28;20729;-62
2023/03/10 08:54:14;;;;;;;0.20;0.10;;;10.60;74.10;;;;;;4975759;28;20445;-61
2023/03/10 08:56:39;;;;;;;0.30;0.30;;;10.60;74.10;;;;;;4972981;28;20034;-61
2023/03/10 08:59:05;;;;;;;0.35;0.20;;;10.50;74.00;;;;;;4975679;28;20498;-58
2023/03/10 09:01:33;;;;;;;1.05;0.73;;;10.50;73.90;;;;;;4972988;28;20502;-60
2023/03/10 09:03:59;;;;;;;1.05;0.52;;;10.50;74.00;;;;;;4973170;28;20042;-61
2023/03/10 09:06:25;;;;;;;0.55;0.40;;;10.50;73.90;;;;;;4976067;28;20039;-61
2023/03/10 09:08:51;;;;;;;2.53;1.13;;;10.50;73.90;;;;;;4971073;28;20034;-61
2023/03/10 09:11:24;;;;;;;0.82;0.82;;;10.50;73.90;;;;;;4977204;28;20046;-58
2023/03/10 09:13:50;;;;;;;2.92;1.20;;;10.50;73.60;;;;;;4978812;28;20031;-60
2023/03/10 09:16:16;;;;;;;2.03;0.90;;;10.50;73.50;;;;;;4979088;28;20043;-59
2023/03/10 09:18:42;;;;;;;1.58;0.85;;;10.50;73.60;;;;;;4977789;28;20038;-59
2023/03/10 09:21:11;;;;;;;3.83;0.43;;;10.40;73.70;;;;;;4979255;28;20581;-59
2023/03/10 09:23:38;;;;;;;1.25;1.08;;;10.40;73.90;;;;;;4978694;28;20085;-60
2023/03/10 09:26:04;;;;;;;1.00;0.65;;;10.30;74.20;;;;;;4977207;28;20045;-59
2023/03/10 09:28:30;;;;;;;1.77;0.50;;;10.30;74.30;;;;;;4973968;28;20332;-60
2023/03/10 09:30:56;;;;;;;1.70;0.45;;;10.30;74.30;;;;;;4975143;28;20054;-60
2023/03/10 09:33:22;;;;;;;1.70;0.30;;;10.20;74.40;;;;;;4974517;28;20045;-61
2023/03/10 09:35:48;;;;;;;1.08;0.20;;;10.20;74.40;;;;;;4975462;28;20760;-61
2023/03/10 09:38:14;;;;;;;1.40;0.20;;;10.20;74.60;;;;;;4973437;28;20037;-60
2023/03/10 09:41:22;;;;;;;1.10;0.17;;;10.20;74.70;;;;;;4971746;28;20081;-60
2023/03/10 09:44:01;;;;;;;2.42;0.10;;;10.10;75.10;;;;;;4952893;28;20034;-59
2023/03/10 09:46:38;;;;;;;1.25;1.13;;;10.10;75.10;;;;;;4973137;28;20157;-60
2023/03/10 09:49:26;;;;;;;0.85;0.35;;;10.10;76.00;;;;;;4975769;28;20042;-60
2023/03/10 09:51:52;;;;;;;0.65;0.30;;;10.20;75.50;;;;;;4973863;28;20039;-61
2023/03/10 09:54:38;;;;;;;1.67;0.30;;;10.20;75.60;;;;;;4973365;28;20081;-58
2023/03/10 09:57:13;;;;;;;2.95;0.40;;;10.20;75.60;;;;;;4975270;28;20090;-60
2023/03/10 09:59:42;;;;;;;2.50;0.32;;;10.30;75.30;;;;;;4973329;28;20034;-60
2023/03/10 10:02:22;;;;;;;1.13;0.20;;;10.40;75.30;;;;;;4977428;28;20046;-61
2023/03/10 10:04:52;;;;;;;2.20;0.40;;;10.50;74.90;;;;;;4975454;28;20042;-60
2023/03/10 10:07:21;;;;;;;1.90;0.43;;;10.60;74.90;;;;;;4974599;28;20035;-61
2023/03/10 10:10:01;;;;;;;1.85;0.50;;;10.60;74.90;;;;;;4972423;28;20039;-59
2023/03/10 10:12:26;;;;;;;2.30;0.68;;;10.70;74.70;;;;;;4972376;28;20491;-61
2023/03/10 10:15:15;;;;;;;1.02;0.47;;;10.70;74.70;;;;;;4974014;28;20065;-61
2023/03/10 10:17:55;;;;;;;3.53;0.47;;;10.90;74.60;;;;;;4974767;28;20026;-59
2023/03/10 10:20:30;;;;;;;1.40;0.50;;;10.90;73.90;;;;;;4973937;28;20027;-60
2023/03/10 10:22:56;;;;;;;3.60;0.47;;;11.00;73.90;;;;;;4975317;28;20045;-60
2023/03/10 10:25:24;;;;;;;1.65;0.70;;;11.10;73.70;;;;;;4973446;28;20039;-60
2023/03/10 10:27:54;;;;;;;0.95;0.45;;;11.10;73.50;;;;;;4972910;28;20467;-60
2023/03/10 10:30:25;;;;;;;1.77;0.50;;;11.10;73.30;;;;;;4971882;28;20407;-61
2023/03/10 10:33:05;;;;;;;3.65;0.55;;;11.10;73.10;;;;;;4974759;28;20457;-58
2023/03/10 10:35:41;;;;;;;2.05;0.45;;;11.20;72.90;;;;;;4973906;28;20570;-61
2023/03/10 10:38:17;;;;;;;4.55;1.20;;;11.20;73.20;;;;;;4975231;28;20051;-60
2023/03/10 10:41:17;;;;;;;1.58;0.68;;;11.20;73.50;;;;;;4971637;28;20058;-60
2023/03/10 10:43:44;;;;;;;1.67;0.40;;;11.40;73.10;;;;;;4971377;28;20402;-62
2023/03/10 10:46:12;;;;;;;1.27;0.40;;;11.40;72.80;;;;;;4974825;28;20046;-60
2023/03/10 10:48:40;;;;;;;1.55;0.50;;;11.50;72.70;;;;;;4977259;28;20038;-62
2023/03/10 10:51:18;;;;;;;2.28;0.40;;;11.50;72.60;;;;;;4976304;28;20410;-61
2023/03/10 10:53:44;;;;;;;2.40;0.50;;;11.60;72.60;;;;;;4975608;28;20035;-61
2023/03/10 10:56:18;;;;;;;0.85;0.35;;;11.60;72.60;;;;;;4973996;28;20502;-61
2023/03/10 10:59:21;;;;;;;5.25;0.40;;;11.60;72.40;;;;;;4970013;28;20038;-60
2023/03/10 11:02:00;;;;;;;2.55;0.20;;;11.70;72.10;;;;;;4974654;28;20030;-59
2023/03/10 11:04:39;;;;;;;0.45;0.10;;;11.80;71.90;;;;;;4972337;28;20038;-60
2023/03/10 11:07:16;;;;;;;2.70;0.20;;;11.80;71.60;;;;;;4973342;28;20523;-59
2023/03/10 11:09:41;;;;;;;1.10;0.30;;;11.90;71.40;;;;;;4973332;28;20030;-59
2023/03/10 11:12:18;;;;;;;0.95;0.20;;;12.00;71.50;;;;;;4973297;28;20081;-59
2023/03/10 11:15:06;;;;;;;4.28;0.30;;;12.00;70.60;;;;;;4973278;28;20129;-61
2023/03/10 11:17:53;;;;;;;1.90;0.20;;;12.10;71.10;;;;;;4974584;28;20671;-61
2023/03/10 11:20:31;;;;;;;0.80;0.40;;;12.10;69.70;;;;;;4974257;28;20038;-61
2023/03/10 11:23:28;;;;;;;1.48;0.35;;;12.20;69.80;;;;;;4978014;28;20046;-58
2023/03/10 11:26:09;;;;;;;2.38;0.22;;;12.20;69.70;;;;;;4974699;28;20038;-60
2023/03/10 11:28:40;;;;;;;1.20;0.40;;;12.20;70.20;;;;;;4977376;28;20443;-62
2023/03/10 11:31:36;;;;;;;0.68;0.30;;;12.20;69.90;;;;;;4976149;28;20050;-61
2023/03/10 11:34:29;;;;;;;0.57;0.20;;;12.30;69.70;;;;;;4976781;28;20434;-61
2023/03/10 11:37:13;;;;;;;0.93;0.20;;;12.30;68.80;;;;;;4977748;28;20061;-59
2023/03/10 11:39:56;;;;;;;0.65;0.20;;;12.30;68.60;;;;;;4974962;28;20034;-57
2023/03/10 11:42:31;;;;;;;0.63;0.10;;;12.30;68.60;;;;;;4977765;28;20035;-60
2023/03/10 11:45:15;;;;;;;0.70;0.10;;;12.20;69.20;;;;;;4976092;28;20034;-60
2023/03/10 11:48:19;;;;;;;0.65;0.20;;;12.20;69.50;;;;;;4978368;28;20596;-61
2023/03/10 11:50:52;;;;;;;2.25;0.30;;;12.20;69.60;;;;;;4974918;28;20042;-60
2023/03/10 11:53:25;;;;;;;0.93;0.20;;;12.20;69.30;;;;;;4974272;28;20154;-59
2023/03/10 11:55:53;;;;;;;0.50;0.20;;;12.20;69.70;;;;;;4977524;28;20085;-59
2023/03/10 11:58:33;;;;;;;1.25;0.68;;;12.20;70.10;;;;;;4959702;28;20042;-61
2023/03/10 12:01:00;;;;;;;1.55;0.88;;;12.10;70.00;;;;;;4977512;28;20038;-59
2023/03/10 12:03:42;;;;;;;2.55;0.80;;;12.20;70.20;;;;;;4977546;28;20038;-60
2023/03/10 12:06:14;;;;;;;0.90;0.40;;;12.20;69.30;;;;;;4960457;28;20038;-60
2023/03/10 12:08:41;;;;;;;1.20;0.40;;;12.30;69.50;;;;;;4974101;28;20711;-60
2023/03/10 12:11:14;;;;;;;0.40;0.30;;;12.20;69.30;;;;;;4976489;28;20038;-60
2023/03/10 12:14:00;;;;;;;0.60;0.40;;;12.30;69.30;;;;;;4976610;28;22220;-59
2023/03/10 12:16:29;;;;;;;4.78;0.68;;;12.30;69.20;;;;;;4975838;28;20046;-60
2023/03/10 12:18:55;;;;;;;4.18;0.30;;;12.40;69.50;;;;;;4976631;28;20042;-59
2023/03/10 12:21:27;;;;;;;0.75;0.35;;;12.40;69.10;;;;;;4977310;28;20048;-59
2023/03/10 12:23:55;;;;;;;1.10;0.38;;;12.40;68.60;;;;;;4975214;28;20045;-60
2023/03/10 12:26:43;;;;;;;1.05;0.50;;;12.30;68.80;;;;;;4976452;28;20117;-61
2023/03/10 12:29:21;;;;;;;0.55;0.25;;;12.30;69.90;;;;;;4976206;28;20031;-60
2023/03/10 12:31:51;;;;;;;0.40;0.20;;;12.30;69.10;;;;;;4975309;28;20125;-61
2023/03/10 12:34:30;;;;;;;0.70;0.20;;;12.30;69.30;;;;;;4977486;28;20050;-62
2023/03/10 12:37:03;;;;;;;1.27;0.30;;;12.20;69.70;;;;;;4977265;28;20050;-61
2023/03/10 12:39:42;;;;;;;0.95;0.30;;;12.20;70.30;;;;;;4974079;28;20042;-61
2023/03/10 12:42:28;;;;;;;1.73;0.60;;;12.10;70.20;;;;;;4976737;28;20104;-61
2023/03/10 12:44:54;;;;;;;0.70;0.30;;;12.10;70.40;;;;;;4976111;28;20046;-61
2023/03/10 12:47:38;;;;;;;0.75;0.28;;;12.10;70.20;;;;;;4971998;28;20039;-58
2023/03/10 12:50:15;;;;;;;0.20;0.20;;;12.10;70.00;;;;;;4976622;28;20043;-61
2023/03/10 12:52:43;;;;;;;4.03;0.50;;;12.10;70.00;;;;;;4973534;28;20049;-61
2023/03/10 12:55:26;;;;;;;0.50;0.28;;;12.10;69.90;;;;;;4975306;28;20430;-62
2023/03/10 12:57:55;;;;;;;1.25;0.30;;;12.20;69.50;;;;;;4976973;28;20042;-60
2023/03/10 13:00:23;;;;;;;0.47;0.20;;;12.20;69.70;;;;;;4978560;28;20035;-59